sensor_id;sensor_type;location;lat;lon;timestamp;P1;durP1;ratioP1;P2;durP2;ratioP2
17595;SDS011;8916;47.086;15.920;2023-01-23T00:02:06;39.83;;;20.40;;
17595;SDS011;8916;47.086;15.920;2023-01-23T00:04:35;40.63;;;20.83;;
17595;SDS011;8916;47.086;15.920;2023-01-23T00:07:04;37.42;;;19.95;;
17595;SDS011;8916;47.086;15.920;2023-01-23T00:09:35;35.47;;;19.25;;
17595;SDS011;8916;47.086;15.920;2023-01-23T00:12:04;42.25;;;20.63;;
17595;SDS011;8916;47.086;15.920;2023-01-23T00:14:33;46.53;;;21.58;;
17595;SDS011;8916;47.086;15.920;2023-01-23T00:17:03;45.17;;;21.10;;
17595;SDS011;8916;47.086;15.920;2023-01-23T00:19:32;43.60;;;20.80;;
17595;SDS011;8916;47.086;15.920;2023-01-23T00:22:01;40.78;;;20.92;;
17595;SDS011;8916;47.086;15.920;2023-01-23T00:24:30;44.42;;;21.10;;
17595;SDS011;8916;47.086;15.920;2023-01-23T00:27:01;38.13;;;20.55;;
17595;SDS011;8916;47.086;15.920;2023-01-23T00:29:30;34.38;;;18.48;;
17595;SDS011;8916;47.086;15.920;2023-01-23T00:31:59;29.98;;;16.40;;
17595;SDS011;8916;47.086;15.920;2023-01-23T00:34:28;32.88;;;17.73;;
17595;SDS011;8916;47.086;15.920;2023-01-23T00:36:58;31.15;;;17.13;;
17595;SDS011;8916;47.086;15.920;2023-01-23T00:39:27;32.28;;;17.70;;
17595;SDS011;8916;47.086;15.920;2023-01-23T00:41:56;32.42;;;18.05;;
17595;SDS011;8916;47.086;15.920;2023-01-23T00:44:27;34.42;;;17.42;;
17595;SDS011;8916;47.086;15.920;2023-01-23T00:46:57;29.27;;;16.55;;
17595;SDS011;8916;47.086;15.920;2023-01-23T00:49:27;34.72;;;17.52;;
17595;SDS011;8916;47.086;15.920;2023-01-23T00:51:58;32.42;;;18.15;;
17595;SDS011;8916;47.086;15.920;2023-01-23T00:54:27;32.30;;;17.48;;
17595;SDS011;8916;47.086;15.920;2023-01-23T00:56:56;34.08;;;17.83;;
17595;SDS011;8916;47.086;15.920;2023-01-23T00:59:27;30.45;;;17.55;;
17595;SDS011;8916;47.086;15.920;2023-01-23T01:01:56;33.88;;;17.73;;
17595;SDS011;8916;47.086;15.920;2023-01-23T01:04:25;33.90;;;19.15;;
17595;SDS011;8916;47.086;15.920;2023-01-23T01:06:55;39.80;;;20.15;;
17595;SDS011;8916;47.086;15.920;2023-01-23T01:09:24;35.00;;;18.45;;
17595;SDS011;8916;47.086;15.920;2023-01-23T01:11:53;36.50;;;19.02;;
17595;SDS011;8916;47.086;15.920;2023-01-23T01:14:22;34.92;;;18.88;;
17595;SDS011;8916;47.086;15.920;2023-01-23T01:16:52;34.13;;;18.85;;
17595;SDS011;8916;47.086;15.920;2023-01-23T01:19:21;32.20;;;17.80;;
17595;SDS011;8916;47.086;15.920;2023-01-23T01:21:51;31.63;;;16.10;;
17595;SDS011;8916;47.086;15.920;2023-01-23T01:24:20;30.10;;;15.45;;
17595;SDS011;8916;47.086;15.920;2023-01-23T01:26:49;28.13;;;16.33;;
17595;SDS011;8916;47.086;15.920;2023-01-23T01:29:18;33.75;;;16.75;;
17595;SDS011;8916;47.086;15.920;2023-01-23T01:31:47;30.27;;;17.05;;
17595;SDS011;8916;47.086;15.920;2023-01-23T01:34:20;30.65;;;16.98;;
17595;SDS011;8916;47.086;15.920;2023-01-23T01:36:49;33.53;;;17.83;;
17595;SDS011;8916;47.086;15.920;2023-01-23T01:39:19;28.35;;;15.38;;
17595;SDS011;8916;47.086;15.920;2023-01-23T01:41:48;32.22;;;17.50;;
17595;SDS011;8916;47.086;15.920;2023-01-23T01:44:18;28.52;;;15.82;;
17595;SDS011;8916;47.086;15.920;2023-01-23T01:46:49;35.08;;;18.85;;
17595;SDS011;8916;47.086;15.920;2023-01-23T01:49:21;40.35;;;19.33;;
17595;SDS011;8916;47.086;15.920;2023-01-23T01:51:56;34.00;;;17.73;;
17595;SDS011;8916;47.086;15.920;2023-01-23T01:54:30;32.72;;;18.40;;
17595;SDS011;8916;47.086;15.920;2023-01-23T01:57:05;31.63;;;16.58;;
17595;SDS011;8916;47.086;15.920;2023-01-23T01:59:40;29.05;;;17.10;;
17595;SDS011;8916;47.086;15.920;2023-01-23T02:02:15;32.05;;;17.63;;
17595;SDS011;8916;47.086;15.920;2023-01-23T02:04:52;33.97;;;18.52;;
17595;SDS011;8916;47.086;15.920;2023-01-23T02:07:28;30.48;;;17.65;;
17595;SDS011;8916;47.086;15.920;2023-01-23T02:10:03;30.60;;;17.95;;
17595;SDS011;8916;47.086;15.920;2023-01-23T02:12:39;32.65;;;17.85;;
17595;SDS011;8916;47.086;15.920;2023-01-23T02:15:08;36.10;;;19.13;;
17595;SDS011;8916;47.086;15.920;2023-01-23T02:17:38;39.35;;;21.00;;
17595;SDS011;8916;47.086;15.920;2023-01-23T02:20:11;34.65;;;19.77;;
17595;SDS011;8916;47.086;15.920;2023-01-23T02:22:49;39.45;;;21.13;;
17595;SDS011;8916;47.086;15.920;2023-01-23T02:25:26;34.58;;;19.48;;
17595;SDS011;8916;47.086;15.920;2023-01-23T02:28:07;37.78;;;19.30;;
17595;SDS011;8916;47.086;15.920;2023-01-23T02:30:38;38.85;;;20.85;;
17595;SDS011;8916;47.086;15.920;2023-01-23T02:33:10;41.20;;;22.63;;
17595;SDS011;8916;47.086;15.920;2023-01-23T02:36:12;35.60;;;19.33;;
17595;SDS011;8916;47.086;15.920;2023-01-23T02:38:44;36.03;;;20.17;;
17595;SDS011;8916;47.086;15.920;2023-01-23T02:41:22;36.72;;;19.80;;
17595;SDS011;8916;47.086;15.920;2023-01-23T02:44:00;33.55;;;18.13;;
17595;SDS011;8916;47.086;15.920;2023-01-23T02:46:35;34.78;;;19.00;;
17595;SDS011;8916;47.086;15.920;2023-01-23T02:49:05;37.75;;;20.65;;
17595;SDS011;8916;47.086;15.920;2023-01-23T02:51:34;36.42;;;19.98;;
17595;SDS011;8916;47.086;15.920;2023-01-23T02:54:04;38.60;;;21.80;;
17595;SDS011;8916;47.086;15.920;2023-01-23T02:56:33;40.22;;;21.83;;
17595;SDS011;8916;47.086;15.920;2023-01-23T02:59:03;36.40;;;20.05;;
17595;SDS011;8916;47.086;15.920;2023-01-23T03:01:50;34.97;;;19.58;;
17595;SDS011;8916;47.086;15.920;2023-01-23T03:04:20;34.45;;;19.65;;
17595;SDS011;8916;47.086;15.920;2023-01-23T03:06:50;34.53;;;20.15;;
17595;SDS011;8916;47.086;15.920;2023-01-23T03:09:19;39.70;;;21.02;;
17595;SDS011;8916;47.086;15.920;2023-01-23T03:11:48;39.15;;;19.65;;
17595;SDS011;8916;47.086;15.920;2023-01-23T03:14:20;36.13;;;19.73;;
17595;SDS011;8916;47.086;15.920;2023-01-23T03:16:52;36.17;;;19.20;;
17595;SDS011;8916;47.086;15.920;2023-01-23T03:19:28;32.20;;;17.33;;
17595;SDS011;8916;47.086;15.920;2023-01-23T03:21:58;31.42;;;17.38;;
17595;SDS011;8916;47.086;15.920;2023-01-23T03:24:27;33.95;;;16.35;;
17595;SDS011;8916;47.086;15.920;2023-01-23T03:26:56;30.13;;;16.65;;
17595;SDS011;8916;47.086;15.920;2023-01-23T03:29:29;33.58;;;17.08;;
17595;SDS011;8916;47.086;15.920;2023-01-23T03:32:16;29.67;;;14.27;;
17595;SDS011;8916;47.086;15.920;2023-01-23T03:34:45;29.10;;;14.85;;
17595;SDS011;8916;47.086;15.920;2023-01-23T03:37:14;29.17;;;14.50;;
17595;SDS011;8916;47.086;15.920;2023-01-23T03:39:46;26.07;;;13.37;;
17595;SDS011;8916;47.086;15.920;2023-01-23T03:42:33;24.52;;;12.68;;
17595;SDS011;8916;47.086;15.920;2023-01-23T03:45:06;26.83;;;12.65;;
17595;SDS011;8916;47.086;15.920;2023-01-23T03:47:36;24.90;;;11.57;;
17595;SDS011;8916;47.086;15.920;2023-01-23T03:50:06;21.60;;;11.43;;
17595;SDS011;8916;47.086;15.920;2023-01-23T03:52:38;20.13;;;11.25;;
17595;SDS011;8916;47.086;15.920;2023-01-23T03:55:09;22.17;;;11.57;;
17595;SDS011;8916;47.086;15.920;2023-01-23T03:57:39;21.00;;;11.27;;
17595;SDS011;8916;47.086;15.920;2023-01-23T04:00:10;16.95;;;10.85;;
17595;SDS011;8916;47.086;15.920;2023-01-23T04:03:06;20.55;;;10.93;;
17595;SDS011;8916;47.086;15.920;2023-01-23T04:05:37;23.23;;;11.25;;
17595;SDS011;8916;47.086;15.920;2023-01-23T04:08:06;17.58;;;10.38;;
17595;SDS011;8916;47.086;15.920;2023-01-23T04:10:36;19.02;;;10.75;;
17595;SDS011;8916;47.086;15.920;2023-01-23T04:13:12;18.00;;;9.98;;
17595;SDS011;8916;47.086;15.920;2023-01-23T04:15:43;19.05;;;10.63;;
17595;SDS011;8916;47.086;15.920;2023-01-23T04:18:15;18.50;;;10.93;;
17595;SDS011;8916;47.086;15.920;2023-01-23T04:20:44;21.05;;;10.82;;
17595;SDS011;8916;47.086;15.920;2023-01-23T04:23:13;19.40;;;10.75;;
17595;SDS011;8916;47.086;15.920;2023-01-23T04:25:42;19.10;;;10.82;;
17595;SDS011;8916;47.086;15.920;2023-01-23T04:28:13;16.70;;;9.85;;
17595;SDS011;8916;47.086;15.920;2023-01-23T04:30:45;18.13;;;10.55;;
17595;SDS011;8916;47.086;15.920;2023-01-23T04:33:20;17.90;;;10.35;;
17595;SDS011;8916;47.086;15.920;2023-01-23T04:35:50;18.20;;;10.25;;
17595;SDS011;8916;47.086;15.920;2023-01-23T04:38:25;22.27;;;11.30;;
17595;SDS011;8916;47.086;15.920;2023-01-23T04:41:04;20.50;;;10.40;;
17595;SDS011;8916;47.086;15.920;2023-01-23T04:43:36;19.25;;;10.50;;
17595;SDS011;8916;47.086;15.920;2023-01-23T04:46:10;19.23;;;10.25;;
17595;SDS011;8916;47.086;15.920;2023-01-23T04:48:54;23.33;;;11.57;;
17595;SDS011;8916;47.086;15.920;2023-01-23T04:51:25;30.13;;;14.07;;
17595;SDS011;8916;47.086;15.920;2023-01-23T04:53:55;31.45;;;14.63;;
17595;SDS011;8916;47.086;15.920;2023-01-23T04:56:24;34.05;;;14.90;;
17595;SDS011;8916;47.086;15.920;2023-01-23T04:58:54;32.13;;;14.38;;
17595;SDS011;8916;47.086;15.920;2023-01-23T05:01:25;24.08;;;11.52;;
17595;SDS011;8916;47.086;15.920;2023-01-23T05:03:59;20.60;;;10.73;;
17595;SDS011;8916;47.086;15.920;2023-01-23T05:06:29;16.92;;;9.32;;
17595;SDS011;8916;47.086;15.920;2023-01-23T05:08:59;18.85;;;10.07;;
17595;SDS011;8916;47.086;15.920;2023-01-23T05:11:39;21.30;;;11.15;;
17595;SDS011;8916;47.086;15.920;2023-01-23T05:14:12;17.05;;;9.85;;
17595;SDS011;8916;47.086;15.920;2023-01-23T05:16:43;18.00;;;9.93;;
17595;SDS011;8916;47.086;15.920;2023-01-23T05:19:15;24.45;;;12.93;;
17595;SDS011;8916;47.086;15.920;2023-01-23T05:21:45;22.42;;;12.45;;
17595;SDS011;8916;47.086;15.920;2023-01-23T05:24:17;20.13;;;10.18;;
17595;SDS011;8916;47.086;15.920;2023-01-23T05:26:46;23.67;;;12.50;;
17595;SDS011;8916;47.086;15.920;2023-01-23T05:29:17;20.30;;;10.55;;
17595;SDS011;8916;47.086;15.920;2023-01-23T05:32:10;22.10;;;11.45;;
17595;SDS011;8916;47.086;15.920;2023-01-23T05:34:42;22.00;;;10.82;;
17595;SDS011;8916;47.086;15.920;2023-01-23T05:37:24;19.17;;;10.05;;
17595;SDS011;8916;47.086;15.920;2023-01-23T05:39:58;18.08;;;9.35;;
17595;SDS011;8916;47.086;15.920;2023-01-23T05:42:47;21.08;;;9.80;;
17595;SDS011;8916;47.086;15.920;2023-01-23T05:45:43;17.85;;;9.65;;
17595;SDS011;8916;47.086;15.920;2023-01-23T05:48:24;18.45;;;9.65;;
17595;SDS011;8916;47.086;15.920;2023-01-23T05:50:54;16.05;;;9.02;;
17595;SDS011;8916;47.086;15.920;2023-01-23T05:53:25;17.75;;;8.73;;
17595;SDS011;8916;47.086;15.920;2023-01-23T05:55:54;16.08;;;9.02;;
17595;SDS011;8916;47.086;15.920;2023-01-23T05:58:23;14.82;;;8.63;;
17595;SDS011;8916;47.086;15.920;2023-01-23T06:00:55;17.08;;;9.20;;
17595;SDS011;8916;47.086;15.920;2023-01-23T06:03:46;17.15;;;8.40;;
17595;SDS011;8916;47.086;15.920;2023-01-23T06:06:36;15.45;;;8.68;;
17595;SDS011;8916;47.086;15.920;2023-01-23T06:09:05;16.45;;;9.57;;
17595;SDS011;8916;47.086;15.920;2023-01-23T06:11:34;17.73;;;9.70;;
17595;SDS011;8916;47.086;15.920;2023-01-23T06:14:06;16.15;;;8.98;;
17595;SDS011;8916;47.086;15.920;2023-01-23T06:16:36;17.15;;;9.45;;
17595;SDS011;8916;47.086;15.920;2023-01-23T06:19:08;18.60;;;10.13;;
17595;SDS011;8916;47.086;15.920;2023-01-23T06:21:37;16.50;;;9.15;;
17595;SDS011;8916;47.086;15.920;2023-01-23T06:24:07;13.93;;;8.48;;
17595;SDS011;8916;47.086;15.920;2023-01-23T06:26:36;14.23;;;8.90;;
17595;SDS011;8916;47.086;15.920;2023-01-23T06:29:06;14.75;;;8.95;;
17595;SDS011;8916;47.086;15.920;2023-01-23T06:31:35;21.10;;;11.00;;
17595;SDS011;8916;47.086;15.920;2023-01-23T06:34:05;26.58;;;13.98;;
17595;SDS011;8916;47.086;15.920;2023-01-23T06:36:42;23.33;;;12.98;;
17595;SDS011;8916;47.086;15.920;2023-01-23T06:39:12;19.40;;;10.98;;
17595;SDS011;8916;47.086;15.920;2023-01-23T06:41:42;18.42;;;9.93;;
17595;SDS011;8916;47.086;15.920;2023-01-23T06:44:18;16.50;;;8.68;;
17595;SDS011;8916;47.086;15.920;2023-01-23T06:46:47;17.85;;;9.93;;
17595;SDS011;8916;47.086;15.920;2023-01-23T06:49:16;23.05;;;11.43;;
17595;SDS011;8916;47.086;15.920;2023-01-23T06:51:47;17.98;;;10.48;;
17595;SDS011;8916;47.086;15.920;2023-01-23T06:54:18;15.25;;;8.05;;
17595;SDS011;8916;47.086;15.920;2023-01-23T06:56:48;13.85;;;7.88;;
17595;SDS011;8916;47.086;15.920;2023-01-23T06:59:20;14.25;;;8.57;;
17595;SDS011;8916;47.086;15.920;2023-01-23T07:01:49;13.35;;;7.65;;
17595;SDS011;8916;47.086;15.920;2023-01-23T07:04:33;12.13;;;7.03;;
17595;SDS011;8916;47.086;15.920;2023-01-23T07:07:03;13.77;;;7.57;;
17595;SDS011;8916;47.086;15.920;2023-01-23T07:09:33;11.95;;;7.38;;
17595;SDS011;8916;47.086;15.920;2023-01-23T07:12:08;11.93;;;6.68;;
17595;SDS011;8916;47.086;15.920;2023-01-23T07:14:38;13.00;;;7.60;;
17595;SDS011;8916;47.086;15.920;2023-01-23T07:17:09;12.98;;;6.85;;
17595;SDS011;8916;47.086;15.920;2023-01-23T07:19:39;12.98;;;7.10;;
17595;SDS011;8916;47.086;15.920;2023-01-23T07:22:15;12.82;;;6.68;;
17595;SDS011;8916;47.086;15.920;2023-01-23T07:24:45;11.85;;;7.15;;
17595;SDS011;8916;47.086;15.920;2023-01-23T07:27:15;10.95;;;6.53;;
17595;SDS011;8916;47.086;15.920;2023-01-23T07:29:44;16.52;;;7.95;;
17595;SDS011;8916;47.086;15.920;2023-01-23T07:32:13;14.07;;;7.28;;
17595;SDS011;8916;47.086;15.920;2023-01-23T07:34:42;12.75;;;7.30;;
17595;SDS011;8916;47.086;15.920;2023-01-23T07:37:11;12.57;;;6.90;;
17595;SDS011;8916;47.086;15.920;2023-01-23T07:39:42;13.60;;;7.10;;
17595;SDS011;8916;47.086;15.920;2023-01-23T07:42:11;10.35;;;6.22;;
17595;SDS011;8916;47.086;15.920;2023-01-23T07:44:41;13.50;;;7.28;;
17595;SDS011;8916;47.086;15.920;2023-01-23T07:47:10;10.77;;;6.85;;
17595;SDS011;8916;47.086;15.920;2023-01-23T07:49:39;16.38;;;7.97;;
17595;SDS011;8916;47.086;15.920;2023-01-23T07:52:08;12.25;;;7.22;;
17595;SDS011;8916;47.086;15.920;2023-01-23T07:54:39;12.88;;;7.00;;
17595;SDS011;8916;47.086;15.920;2023-01-23T07:57:08;14.65;;;7.70;;
17595;SDS011;8916;47.086;15.920;2023-01-23T07:59:37;15.35;;;7.85;;
17595;SDS011;8916;47.086;15.920;2023-01-23T08:02:07;16.75;;;7.97;;
17595;SDS011;8916;47.086;15.920;2023-01-23T08:04:37;11.23;;;6.18;;
17595;SDS011;8916;47.086;15.920;2023-01-23T08:07:06;13.05;;;6.80;;
17595;SDS011;8916;47.086;15.920;2023-01-23T08:09:35;14.90;;;7.78;;
17595;SDS011;8916;47.086;15.920;2023-01-23T08:12:06;12.10;;;7.25;;
17595;SDS011;8916;47.086;15.920;2023-01-23T08:14:35;12.63;;;7.82;;
17595;SDS011;8916;47.086;15.920;2023-01-23T08:17:05;11.95;;;7.05;;
17595;SDS011;8916;47.086;15.920;2023-01-23T08:19:34;15.80;;;7.65;;
17595;SDS011;8916;47.086;15.920;2023-01-23T08:22:03;16.45;;;7.85;;
17595;SDS011;8916;47.086;15.920;2023-01-23T08:24:33;13.00;;;7.35;;
17595;SDS011;8916;47.086;15.920;2023-01-23T08:27:02;14.98;;;6.78;;
17595;SDS011;8916;47.086;15.920;2023-01-23T08:29:33;12.98;;;7.35;;
17595;SDS011;8916;47.086;15.920;2023-01-23T08:32:02;11.38;;;6.75;;
17595;SDS011;8916;47.086;15.920;2023-01-23T08:34:32;13.63;;;6.75;;
17595;SDS011;8916;47.086;15.920;2023-01-23T08:37:01;13.02;;;6.70;;
17595;SDS011;8916;47.086;15.920;2023-01-23T08:39:30;12.80;;;6.82;;
17595;SDS011;8916;47.086;15.920;2023-01-23T08:41:59;15.20;;;7.55;;
17595;SDS011;8916;47.086;15.920;2023-01-23T08:44:28;16.65;;;7.65;;
17595;SDS011;8916;47.086;15.920;2023-01-23T08:47:01;15.95;;;7.75;;
17595;SDS011;8916;47.086;15.920;2023-01-23T08:49:31;15.27;;;7.70;;
17595;SDS011;8916;47.086;15.920;2023-01-23T08:52:00;13.27;;;7.20;;
17595;SDS011;8916;47.086;15.920;2023-01-23T08:54:31;17.30;;;8.50;;
17595;SDS011;8916;47.086;15.920;2023-01-23T08:57:00;14.45;;;6.97;;
17595;SDS011;8916;47.086;15.920;2023-01-23T08:59:29;16.27;;;7.53;;
17595;SDS011;8916;47.086;15.920;2023-01-23T09:01:59;14.07;;;7.18;;
17595;SDS011;8916;47.086;15.920;2023-01-23T09:04:30;13.68;;;7.63;;
17595;SDS011;8916;47.086;15.920;2023-01-23T09:06:59;13.52;;;6.70;;
17595;SDS011;8916;47.086;15.920;2023-01-23T09:09:28;11.38;;;6.90;;
17595;SDS011;8916;47.086;15.920;2023-01-23T09:11:57;12.82;;;6.57;;
17595;SDS011;8916;47.086;15.920;2023-01-23T09:14:26;16.05;;;7.22;;
17595;SDS011;8916;47.086;15.920;2023-01-23T09:16:55;13.10;;;7.00;;
17595;SDS011;8916;47.086;15.920;2023-01-23T09:19:24;13.57;;;7.18;;
17595;SDS011;8916;47.086;15.920;2023-01-23T09:21:55;17.35;;;7.80;;
17595;SDS011;8916;47.086;15.920;2023-01-23T09:24:24;15.02;;;7.55;;
17595;SDS011;8916;47.086;15.920;2023-01-23T09:26:53;14.93;;;7.43;;
17595;SDS011;8916;47.086;15.920;2023-01-23T09:29:22;15.02;;;7.30;;
17595;SDS011;8916;47.086;15.920;2023-01-23T09:31:51;12.50;;;6.53;;
17595;SDS011;8916;47.086;15.920;2023-01-23T09:34:21;12.32;;;7.07;;
17595;SDS011;8916;47.086;15.920;2023-01-23T09:36:50;14.52;;;7.20;;
17595;SDS011;8916;47.086;15.920;2023-01-23T09:39:21;12.60;;;6.55;;
17595;SDS011;8916;47.086;15.920;2023-01-23T09:41:50;16.40;;;7.13;;
17595;SDS011;8916;47.086;15.920;2023-01-23T09:44:21;13.27;;;6.43;;
17595;SDS011;8916;47.086;15.920;2023-01-23T09:46:58;13.45;;;6.63;;
17595;SDS011;8916;47.086;15.920;2023-01-23T09:49:36;15.57;;;7.10;;
17595;SDS011;8916;47.086;15.920;2023-01-23T09:52:14;14.13;;;6.63;;
17595;SDS011;8916;47.086;15.920;2023-01-23T09:54:49;12.80;;;6.40;;
17595;SDS011;8916;47.086;15.920;2023-01-23T09:57:23;14.27;;;6.93;;
17595;SDS011;8916;47.086;15.920;2023-01-23T10:00:00;15.52;;;7.50;;
17595;SDS011;8916;47.086;15.920;2023-01-23T10:02:40;13.93;;;7.18;;
17595;SDS011;8916;47.086;15.920;2023-01-23T10:05:12;17.23;;;8.40;;
17595;SDS011;8916;47.086;15.920;2023-01-23T10:07:49;17.35;;;7.47;;
17595;SDS011;8916;47.086;15.920;2023-01-23T10:10:46;21.35;;;8.38;;
17595;SDS011;8916;47.086;15.920;2023-01-23T10:13:34;17.55;;;7.70;;
17595;SDS011;8916;47.086;15.920;2023-01-23T10:19:34;14.45;;;6.88;;
17595;SDS011;8916;47.086;15.920;2023-01-23T10:22:23;17.58;;;7.18;;
17595;SDS011;8916;47.086;15.920;2023-01-23T10:25:08;16.98;;;7.55;;
17595;SDS011;8916;47.086;15.920;2023-01-23T10:27:45;19.48;;;8.10;;
17595;SDS011;8916;47.086;15.920;2023-01-23T10:30:21;19.13;;;7.18;;
17595;SDS011;8916;47.086;15.920;2023-01-23T10:32:58;16.75;;;6.75;;
17595;SDS011;8916;47.086;15.920;2023-01-23T10:35:39;14.95;;;7.30;;
17595;SDS011;8916;47.086;15.920;2023-01-23T10:38:21;14.73;;;7.40;;
17595;SDS011;8916;47.086;15.920;2023-01-23T10:40:58;14.07;;;6.57;;
17595;SDS011;8916;47.086;15.920;2023-01-23T10:43:50;14.60;;;7.05;;
17595;SDS011;8916;47.086;15.920;2023-01-23T10:46:22;13.60;;;6.68;;
17595;SDS011;8916;47.086;15.920;2023-01-23T10:51:30;13.13;;;6.93;;
17595;SDS011;8916;47.086;15.920;2023-01-23T10:54:09;22.27;;;7.55;;
17595;SDS011;8916;47.086;15.920;2023-01-23T10:56:58;14.57;;;7.55;;
17595;SDS011;8916;47.086;15.920;2023-01-23T10:59:34;17.17;;;7.45;;
17595;SDS011;8916;47.086;15.920;2023-01-23T11:02:20;13.88;;;7.30;;
17595;SDS011;8916;47.086;15.920;2023-01-23T11:04:55;15.10;;;7.15;;
17595;SDS011;8916;47.086;15.920;2023-01-23T11:07:26;14.27;;;6.80;;
17595;SDS011;8916;47.086;15.920;2023-01-23T11:09:58;13.38;;;6.97;;
17595;SDS011;8916;47.086;15.920;2023-01-23T11:12:31;17.80;;;8.02;;
17595;SDS011;8916;47.086;15.920;2023-01-23T11:15:18;13.07;;;7.25;;
17595;SDS011;8916;47.086;15.920;2023-01-23T11:17:50;15.70;;;7.97;;
17595;SDS011;8916;47.086;15.920;2023-01-23T11:20:23;15.15;;;7.38;;
17595;SDS011;8916;47.086;15.920;2023-01-23T11:23:02;16.47;;;8.13;;
17595;SDS011;8916;47.086;15.920;2023-01-23T11:25:41;16.60;;;8.27;;
17595;SDS011;8916;47.086;15.920;2023-01-23T11:28:19;15.20;;;7.97;;
17595;SDS011;8916;47.086;15.920;2023-01-23T11:30:56;16.10;;;7.80;;
17595;SDS011;8916;47.086;15.920;2023-01-23T11:33:41;19.30;;;7.70;;
17595;SDS011;8916;47.086;15.920;2023-01-23T11:36:23;13.73;;;7.72;;
17595;SDS011;8916;47.086;15.920;2023-01-23T11:39:08;15.13;;;8.20;;
17595;SDS011;8916;47.086;15.920;2023-01-23T11:41:49;15.70;;;8.45;;
17595;SDS011;8916;47.086;15.920;2023-01-23T11:44:19;16.75;;;7.85;;
17595;SDS011;8916;47.086;15.920;2023-01-23T11:47:04;17.63;;;8.45;;
17595;SDS011;8916;47.086;15.920;2023-01-23T11:53:00;18.13;;;8.93;;
17595;SDS011;8916;47.086;15.920;2023-01-23T11:55:46;18.13;;;9.52;;
17595;SDS011;8916;47.086;15.920;2023-01-23T11:59:05;18.70;;;8.95;;
17595;SDS011;8916;47.086;15.920;2023-01-23T12:05:25;15.80;;;8.75;;
17595;SDS011;8916;47.086;15.920;2023-01-23T12:08:45;16.35;;;8.63;;
17595;SDS011;8916;47.086;15.920;2023-01-23T12:11:20;19.33;;;9.43;;
17595;SDS011;8916;47.086;15.920;2023-01-23T12:13:54;22.92;;;12.15;;
17595;SDS011;8916;47.086;15.920;2023-01-23T12:16:35;17.50;;;8.93;;
17595;SDS011;8916;47.086;15.920;2023-01-23T12:19:28;19.15;;;9.82;;
17595;SDS011;8916;47.086;15.920;2023-01-23T12:22:23;16.38;;;8.55;;
17595;SDS011;8916;47.086;15.920;2023-01-23T12:25:08;14.40;;;8.32;;
17595;SDS011;8916;47.086;15.920;2023-01-23T12:27:47;15.85;;;8.93;;
17595;SDS011;8916;47.086;15.920;2023-01-23T12:33:47;17.30;;;9.00;;
17595;SDS011;8916;47.086;15.920;2023-01-23T12:36:43;17.20;;;8.68;;
17595;SDS011;8916;47.086;15.920;2023-01-23T12:39:59;19.52;;;8.68;;
17595;SDS011;8916;47.086;15.920;2023-01-23T12:42:42;16.70;;;8.20;;
17595;SDS011;8916;47.086;15.920;2023-01-23T12:45:19;16.33;;;8.02;;
17595;SDS011;8916;47.086;15.920;2023-01-23T12:48:01;15.30;;;8.45;;
17595;SDS011;8916;47.086;15.920;2023-01-23T12:50:39;16.77;;;8.43;;
17595;SDS011;8916;47.086;15.920;2023-01-23T12:53:16;10.65;;;6.38;;
17595;SDS011;8916;47.086;15.920;2023-01-23T12:55:52;17.73;;;9.00;;
17595;SDS011;8916;47.086;15.920;2023-01-23T12:58:26;15.70;;;8.23;;
17595;SDS011;8916;47.086;15.920;2023-01-23T13:01:09;14.32;;;7.50;;
17595;SDS011;8916;47.086;15.920;2023-01-23T13:04:11;17.38;;;8.82;;
17595;SDS011;8916;47.086;15.920;2023-01-23T13:07:12;18.13;;;8.88;;
17595;SDS011;8916;47.086;15.920;2023-01-23T13:10:01;16.13;;;8.90;;
17595;SDS011;8916;47.086;15.920;2023-01-23T13:13:14;18.67;;;8.52;;
17595;SDS011;8916;47.086;15.920;2023-01-23T13:15:59;17.15;;;8.25;;
17595;SDS011;8916;47.086;15.920;2023-01-23T13:18:31;19.23;;;9.70;;
17595;SDS011;8916;47.086;15.920;2023-01-23T13:21:22;19.08;;;9.48;;
17595;SDS011;8916;47.086;15.920;2023-01-23T13:27:41;18.33;;;9.13;;
17595;SDS011;8916;47.086;15.920;2023-01-23T13:36:36;20.60;;;10.03;;
17595;SDS011;8916;47.086;15.920;2023-01-23T13:45:22;17.45;;;9.63;;
17595;SDS011;8916;47.086;15.920;2023-01-23T13:48:00;17.27;;;9.00;;
17595;SDS011;8916;47.086;15.920;2023-01-23T13:51:21;22.90;;;10.93;;
17595;SDS011;8916;47.086;15.920;2023-01-23T13:54:09;35.33;;;15.18;;
17595;SDS011;8916;47.086;15.920;2023-01-23T13:57:12;29.73;;;13.43;;
17595;SDS011;8916;47.086;15.920;2023-01-23T13:59:58;24.48;;;10.88;;
17595;SDS011;8916;47.086;15.920;2023-01-23T14:02:44;19.25;;;9.68;;
17595;SDS011;8916;47.086;15.920;2023-01-23T14:09:17;23.45;;;11.02;;
17595;SDS011;8916;47.086;15.920;2023-01-23T14:12:03;18.27;;;9.60;;
17595;SDS011;8916;47.086;15.920;2023-01-23T14:14:46;18.05;;;10.15;;
17595;SDS011;8916;47.086;15.920;2023-01-23T14:17:48;19.00;;;9.60;;
17595;SDS011;8916;47.086;15.920;2023-01-23T14:20:32;19.35;;;10.18;;
17595;SDS011;8916;47.086;15.920;2023-01-23T14:23:13;19.50;;;10.45;;
17595;SDS011;8916;47.086;15.920;2023-01-23T14:25:55;16.50;;;9.50;;
17595;SDS011;8916;47.086;15.920;2023-01-23T14:28:25;17.98;;;9.23;;
17595;SDS011;8916;47.086;15.920;2023-01-23T14:30:56;18.85;;;9.15;;
17595;SDS011;8916;47.086;15.920;2023-01-23T14:33:36;17.90;;;9.65;;
17595;SDS011;8916;47.086;15.920;2023-01-23T14:36:12;19.98;;;9.73;;
17595;SDS011;8916;47.086;15.920;2023-01-23T14:38:44;16.60;;;9.10;;
17595;SDS011;8916;47.086;15.920;2023-01-23T14:41:16;18.00;;;9.70;;
17595;SDS011;8916;47.086;15.920;2023-01-23T14:43:57;22.70;;;10.95;;
17595;SDS011;8916;47.086;15.920;2023-01-23T14:46:30;18.10;;;9.57;;
17595;SDS011;8916;47.086;15.920;2023-01-23T14:49:08;18.05;;;9.63;;
17595;SDS011;8916;47.086;15.920;2023-01-23T14:51:38;21.02;;;9.55;;
17595;SDS011;8916;47.086;15.920;2023-01-23T14:54:14;19.40;;;9.63;;
17595;SDS011;8916;47.086;15.920;2023-01-23T14:56:49;16.27;;;8.68;;
17595;SDS011;8916;47.086;15.920;2023-01-23T14:59:22;16.35;;;9.27;;
17595;SDS011;8916;47.086;15.920;2023-01-23T15:01:57;17.67;;;9.35;;
17595;SDS011;8916;47.086;15.920;2023-01-23T15:04:43;20.75;;;10.05;;
17595;SDS011;8916;47.086;15.920;2023-01-23T15:07:55;16.17;;;8.80;;
17595;SDS011;8916;47.086;15.920;2023-01-23T15:10:29;19.05;;;9.88;;
17595;SDS011;8916;47.086;15.920;2023-01-23T15:13:03;18.08;;;9.75;;
17595;SDS011;8916;47.086;15.920;2023-01-23T15:15:36;20.27;;;9.52;;
17595;SDS011;8916;47.086;15.920;2023-01-23T15:18:15;17.85;;;9.80;;
17595;SDS011;8916;47.086;15.920;2023-01-23T15:20:54;19.88;;;10.60;;
17595;SDS011;8916;47.086;15.920;2023-01-23T15:23:26;20.92;;;10.63;;
17595;SDS011;8916;47.086;15.920;2023-01-23T15:26:17;19.77;;;9.32;;
17595;SDS011;8916;47.086;15.920;2023-01-23T15:28:54;17.00;;;9.40;;
17595;SDS011;8916;47.086;15.920;2023-01-23T15:31:27;19.15;;;9.38;;
17595;SDS011;8916;47.086;15.920;2023-01-23T15:34:14;18.05;;;9.18;;
17595;SDS011;8916;47.086;15.920;2023-01-23T15:36:50;19.30;;;9.27;;
17595;SDS011;8916;47.086;15.920;2023-01-23T15:39:29;20.98;;;10.48;;
17595;SDS011;8916;47.086;15.920;2023-01-23T15:42:03;17.52;;;9.23;;
17595;SDS011;8916;47.086;15.920;2023-01-23T15:44:51;16.92;;;9.55;;
17595;SDS011;8916;47.086;15.920;2023-01-23T15:47:20;20.25;;;9.82;;
17595;SDS011;8916;47.086;15.920;2023-01-23T15:49:49;17.45;;;9.25;;
17595;SDS011;8916;47.086;15.920;2023-01-23T15:52:21;18.50;;;9.63;;